Time;durP1;ratioP1;P1;durP2;ratioP2;P2;SDS_P1;SDS_P2;PMS_P1;PMS_P2;Temp;Humidity;BMP_temperature;BMP_pressure;BME280_temperature;BME280_humidity;BME280_pressure;Samples;Min_cycle;Max_cycle;Signal;HPM_P1;HPM_P2
2023/01/20 00:00:15;;;;;;;24.88;17.10;;;;;;;4.45;71.72;99695.03;5052840;28;20064;-64
2023/01/20 00:02:43;;;;;;;30.20;19.50;;;;;;;4.48;71.19;99694.47;5041214;28;20045;-65
2023/01/20 00:05:10;;;;;;;25.90;16.60;;;;;;;4.34;71.32;99693.50;5053345;28;20045;-64
2023/01/20 00:07:37;;;;;;;28.83;17.65;;;;;;;4.38;72.24;99700.91;5036620;28;20076;-64
2023/01/20 00:10:07;;;;;;;27.50;17.70;;;;;;;4.25;71.60;99693.34;5040679;28;20053;-65
2023/01/20 00:12:34;;;;;;;;;;;;;;;4.29;71.14;99699.09;5050292;28;20060;-64
2023/01/20 00:15:01;;;;;;;25.73;16.30;;;;;;;4.17;71.25;99700.28;5050367;28;19921;-64
2023/01/20 00:17:28;;;;;;;29.60;17.65;;;;;;;4.32;71.70;99696.56;5041040;28;20065;-64
2023/01/20 00:19:56;;;;;;;27.85;17.50;;;;;;;4.35;72.44;99704.25;5038149;28;20056;-65
2023/01/20 00:22:23;;;;;;;28.77;19.30;;;;;;;4.47;73.22;99701.91;5046296;28;20413;-64
2023/01/20 00:24:50;;;;;;;28.40;18.45;;;;;;;4.48;73.27;99708.25;5048629;28;20053;-65
2023/01/20 00:27:19;;;;;;;28.92;18.15;;;;;;;4.45;72.35;99701.38;5047469;28;20056;-64
2023/01/20 00:29:46;;;;;;;27.80;17.63;;;;;;;4.51;71.75;99710.41;5049884;28;20050;-64
2023/01/20 00:32:13;;;;;;;29.90;17.92;;;;;;;4.64;72.39;99712.47;5051667;28;20060;-65
2023/01/20 00:34:41;;;;;;;28.80;18.50;;;;;;;4.61;72.04;99717.75;5049116;28;20045;-64
2023/01/20 00:37:08;;;;;;;29.77;19.98;;;;;;;4.63;72.32;99713.59;5041569;28;20050;-64
2023/01/20 00:39:35;;;;;;;29.83;19.95;;;;;;;4.61;71.50;99710.28;5034346;28;20053;-65
2023/01/20 00:42:02;;;;;;;26.08;17.42;;;;;;;4.66;72.38;99717.69;5042452;28;20064;-65
2023/01/20 00:44:31;;;;;;;27.30;18.05;;;;;;;4.66;72.09;99720.44;5042558;28;20057;-64
2023/01/20 00:46:59;;;;;;;27.88;17.60;;;;;;;4.66;71.33;99715.78;5049309;28;20445;-65
2023/01/20 00:49:26;;;;;;;21.85;15.85;;;;;;;4.60;71.80;99711.44;5046324;28;20049;-64
2023/01/20 00:51:53;;;;;;;24.33;14.55;;;;;;;4.60;71.09;99716.09;5048530;28;20389;-64
2023/01/20 00:54:21;;;;;;;24.75;17.08;;;;;;;4.68;71.12;99723.72;5046852;28;20053;-64
2023/01/20 00:56:48;;;;;;;26.50;17.05;;;;;;;4.70;71.35;99717.94;5046318;28;20050;-65
2023/01/20 00:59:15;;;;;;;27.42;16.63;;;;;;;4.55;71.57;99721.69;5038703;28;20057;-65
2023/01/20 01:01:44;;;;;;;24.13;16.85;;;;;;;4.58;71.14;99734.91;5048474;28;20461;-64
2023/01/20 01:04:12;;;;;;;27.33;17.23;;;;;;;4.61;70.97;99723.28;5045984;28;20045;-64
2023/01/20 01:06:39;;;;;;;27.63;16.92;;;;;;;4.65;71.03;99729.84;5042982;28;20045;-64
2023/01/20 01:09:06;;;;;;;25.70;16.67;;;;;;;4.61;71.37;99726.84;5050277;28;20060;-65
2023/01/20 01:11:33;;;;;;;25.58;17.60;;;;;;;4.52;70.79;99734.13;5049612;28;20055;-64
2023/01/20 01:14:01;;;;;;;25.73;16.92;;;;;;;4.60;70.75;99732.66;5048549;28;20049;-64
2023/01/20 01:16:28;;;;;;;27.92;17.33;;;;;;;4.61;71.65;99739.81;5033309;28;20049;-64
2023/01/20 01:18:56;;;;;;;26.13;17.58;;;;;;;4.62;71.18;99738.69;5044486;28;20052;-64
2023/01/20 01:21:24;;;;;;;26.15;16.05;;;;;;;4.62;71.66;99742.28;5052395;28;20064;-65
2023/01/20 01:23:52;;;;;;;24.15;16.75;;;;;;;4.59;71.14;99742.88;5048924;28;20052;-64
2023/01/20 01:26:19;;;;;;;25.88;16.77;;;;;;;4.60;70.03;99751.94;5052195;28;20409;-64
2023/01/20 01:28:48;;;;;;;23.00;15.93;;;;;;;4.60;70.96;99751.94;5033966;28;20482;-64
2023/01/20 01:31:17;;;;;;;22.80;15.95;;;;;;;4.50;70.57;99754.84;5041581;28;20060;-65
2023/01/20 01:33:45;;;;;;;25.70;16.98;;;;;;;4.42;69.91;99750.78;5048910;28;20492;-65
2023/01/20 01:36:16;;;;;;;28.50;17.10;;;;;;;4.46;70.98;99755.41;5046938;28;20051;-64
2023/01/20 01:38:44;;;;;;;30.48;17.13;;;;;;;4.52;70.21;99761.72;5051776;28;20044;-64
2023/01/20 01:41:13;;;;;;;26.95;18.25;;;;;;;4.48;71.04;99758.69;5048842;28;20076;-64
2023/01/20 01:44:04;;;;;;;27.98;18.67;;;;;;;4.64;70.44;99761.28;5042978;28;20048;-64
2023/01/20 01:46:31;;;;;;;25.38;17.00;;;;;;;4.68;70.80;99760.44;5046555;28;20063;-65
2023/01/20 01:49:01;;;;;;;28.27;17.42;;;;;;;4.74;71.03;99768.63;5049836;28;20057;-64
2023/01/20 01:51:33;;;;;;;28.13;18.85;;;;;;;4.76;71.51;99758.94;5051521;28;20064;-64
2023/01/20 01:54:05;;;;;;;30.83;18.48;;;;;;;4.74;70.92;99763.13;5046738;28;20123;-64
2023/01/20 01:56:33;;;;;;;25.98;17.40;;;;;;;4.75;70.58;99762.84;5051091;28;20060;-65
2023/01/20 01:59:03;;;;;;;28.13;19.25;;;;;;;4.79;71.57;99765.84;5046375;28;20457;-64
2023/01/20 02:01:33;;;;;;;26.52;18.17;;;;;;;4.84;71.50;99771.28;5042323;28;20053;-65
2023/01/20 02:04:05;;;;;;;26.25;18.67;;;;;;;4.84;70.95;99772.09;5037872;28;20056;-65
2023/01/20 02:06:38;;;;;;;30.80;18.42;;;;;;;4.95;71.38;99772.00;5039823;28;20048;-64
2023/01/20 02:09:05;;;;;;;27.30;18.20;;;;;;;4.97;71.23;99773.31;5049636;28;20056;-65
2023/01/20 02:11:37;;;;;;;30.50;17.88;;;;;;;5.04;71.50;99765.53;5040363;28;20501;-64
2023/01/20 02:14:04;;;;;;;27.15;18.17;;;;;;;5.04;70.95;99772.97;5033761;28;20049;-65
2023/01/20 02:16:42;;;;;;;28.73;16.50;;;;;;;4.92;70.01;99767.88;5046393;28;20057;-64
2023/01/20 02:19:42;;;;;;;26.13;16.35;;;;;;;4.77;69.35;99771.66;5049978;28;20064;-64
2023/01/20 02:22:20;;;;;;;25.40;17.10;;;;;;;4.94;69.95;99770.34;5046335;28;20049;-63
2023/01/20 02:25:14;;;;;;;29.17;17.80;;;;;;;4.83;70.14;99770.47;5041606;28;20041;-64
2023/01/20 02:28:06;;;;;;;28.55;18.10;;;;;;;4.83;69.65;99769.63;5048979;28;20068;-64
2023/01/20 02:31:05;;;;;;;28.27;17.20;;;;;;;4.82;69.75;99779.84;5047257;28;20045;-64
2023/01/20 02:33:39;;;;;;;23.63;16.67;;;;;;;4.84;70.09;99787.84;5032207;28;20060;-64
2023/01/20 02:36:09;;;;;;;27.38;18.15;;;;;;;4.75;69.99;99786.84;5041643;28;20049;-65
2023/01/20 02:38:44;;;;;;;29.88;17.17;;;;;;;4.78;70.18;99786.25;5049244;28;20056;-64
2023/01/20 02:41:17;;;;;;;29.83;18.60;;;;;;;4.77;70.28;99782.69;5040266;28;20057;-65
2023/01/20 02:43:50;;;;;;;28.77;18.02;;;;;;;4.73;70.76;99791.84;5046648;28;20045;-65
2023/01/20 02:46:26;;;;;;;25.48;18.50;;;;;;;4.59;70.44;99788.94;5051138;28;20056;-65
2023/01/20 02:49:00;;;;;;;24.75;15.98;;;;;;;4.32;70.65;99787.53;5046916;28;20060;-65
2023/01/20 02:51:33;;;;;;;24.67;16.42;;;;;;;4.23;70.28;99800.31;5048278;28;20057;-64
2023/01/20 02:54:05;;;;;;;31.67;18.25;;;;;;;4.33;71.37;99800.22;5051461;28;20136;-64
2023/01/20 02:56:35;;;;;;;29.27;18.95;;;;;;;4.42;70.99;99805.94;5045873;28;20409;-65
2023/01/20 02:59:06;;;;;;;27.40;19.20;;;;;;;4.49;70.51;99803.63;5051219;28;20056;-64
2023/01/20 03:01:38;;;;;;;28.95;18.77;;;;;;;4.59;71.43;99808.25;5041495;28;20061;-64
2023/01/20 03:04:10;;;;;;;26.23;17.67;;;;;;;4.52;71.08;99811.34;5048976;28;20120;-65
2023/01/20 03:06:43;;;;;;;28.63;18.20;;;;;;;4.42;70.88;99816.94;5048951;28;20045;-64
2023/01/20 03:09:15;;;;;;;28.67;17.50;;;;;;;4.36;70.27;99815.34;5048396;28;20060;-64
2023/01/20 03:11:47;;;;;;;26.85;17.83;;;;;;;4.47;70.51;99811.38;5051114;28;20049;-64
2023/01/20 03:14:17;;;;;;;28.35;18.20;;;;;;;4.49;70.72;99809.16;5047526;28;20056;-65
2023/01/20 03:16:46;;;;;;;30.33;19.25;;;;;;;4.58;70.99;99817.66;5034126;28;20404;-64
2023/01/20 03:19:17;;;;;;;26.70;17.48;;;;;;;4.62;71.66;99826.94;5054761;28;20056;-64
2023/01/20 03:21:45;;;;;;;29.55;19.10;;;;;;;4.58;70.96;99820.41;5055034;28;20481;-64
2023/01/20 03:24:12;;;;;;;28.77;18.88;;;;;;;4.45;71.47;99814.44;5055907;28;20057;-64
2023/01/20 03:26:40;;;;;;;29.17;18.52;;;;;;;4.37;70.87;99820.59;5051824;28;20045;-64
2023/01/20 03:29:11;;;;;;;28.83;18.50;;;;;;;4.22;71.44;99817.94;5035756;28;20057;-65
2023/01/20 03:31:43;;;;;;;25.60;17.75;;;;;;;4.06;71.43;99820.00;5043281;28;20053;-64
2023/01/20 03:34:14;;;;;;;27.52;17.33;;;;;;;4.00;71.56;99824.72;5042612;28;20053;-65
2023/01/20 03:36:45;;;;;;;28.50;18.10;;;;;;;3.81;70.73;99826.53;5050611;28;20061;-64
2023/01/20 03:39:13;;;;;;;28.67;18.40;;;;;;;3.80;71.03;99830.38;5042551;28;20391;-64
2023/01/20 03:41:51;;;;;;;30.98;18.77;;;;;;;3.73;71.82;99844.47;5041188;28;20433;-64
2023/01/20 03:44:27;;;;;;;28.20;18.30;;;;;;;3.77;71.55;99845.53;5040327;28;20052;-64
2023/01/20 03:47:02;;;;;;;29.55;18.35;;;;;;;3.86;72.42;99841.09;5041304;28;20056;-64
2023/01/20 03:49:35;;;;;;;31.05;19.30;;;;;;;3.82;70.88;99840.00;5040828;28;20379;-64
2023/01/20 03:52:09;;;;;;;31.10;18.67;;;;;;;3.91;71.55;99848.50;5046540;28;20071;-63
2023/01/20 03:54:46;;;;;;;31.35;18.55;;;;;;;4.04;71.50;99853.34;5054798;28;20053;-64
2023/01/20 03:57:18;;;;;;;25.48;17.08;;;;;;;4.12;72.12;99857.44;5054221;28;20053;-64
2023/01/20 03:59:51;;;;;;;29.15;18.75;;;;;;;3.95;71.13;99845.97;5035330;28;20061;-63
2023/01/20 04:02:20;;;;;;;29.35;19.33;;;;;;;4.12;70.67;99851.94;5048507;28;20049;-63
2023/01/20 04:04:49;;;;;;;31.30;19.25;;;;;;;4.05;70.75;99854.16;5043535;28;20055;-64
2023/01/20 04:07:21;;;;;;;32.25;21.00;;;;;;;4.11;70.90;99852.22;5053904;28;20060;-63
2023/01/20 04:09:54;;;;;;;28.45;19.27;;;;;;;4.12;69.95;99862.16;5040706;28;20061;-64
2023/01/20 04:12:21;;;;;;;29.30;19.48;;;;;;;4.25;71.51;99858.72;5049631;28;20052;-64
2023/01/20 04:14:49;;;;;;;27.52;18.85;;;;;;;4.32;70.67;99861.97;5034578;28;20057;-64
2023/01/20 04:17:16;;;;;;;29.65;19.02;;;;;;;4.40;71.12;99861.34;5046602;28;20504;-64
2023/01/20 04:19:43;;;;;;;29.70;21.27;;;;;;;4.45;71.54;99863.25;5052835;28;20053;-64
2023/01/20 04:22:17;;;;;;;31.73;20.27;;;;;;;4.51;70.88;99866.78;5052967;28;20387;-64
2023/01/20 04:24:52;;;;;;;33.13;20.23;;;;;;;4.47;70.33;99867.38;5053089;28;20060;-63
2023/01/20 04:27:20;;;;;;;29.70;19.85;;;;;;;4.54;71.13;99871.75;5038019;28;20056;-64
2023/01/20 04:29:47;;;;;;;35.33;21.27;;;;;;;4.53;71.21;99868.13;5037223;28;20049;-63
2023/01/20 04:32:14;;;;;;;30.92;19.60;;;;;;;4.51;70.44;99875.06;5043591;28;20057;-64
2023/01/20 04:34:41;;;;;;;29.90;19.35;;;;;;;4.56;71.26;99875.03;5050153;28;20057;-64
2023/01/20 04:37:08;;;;;;;28.52;19.70;;;;;;;4.52;70.58;99865.69;5052363;28;20481;-64
2023/01/20 04:39:36;;;;;;;31.48;20.75;;;;;;;4.50;71.23;99871.47;5045232;28;20053;-63
2023/01/20 04:42:04;;;;;;;31.20;20.35;;;;;;;4.53;70.48;99875.59;5035132;28;20068;-63
2023/01/20 04:44:32;;;;;;;27.73;18.92;;;;;;;4.51;70.19;99880.56;5049503;28;20056;-64
2023/01/20 04:46:59;;;;;;;31.20;19.17;;;;;;;4.51;70.06;99883.34;5052856;28;20045;-64
2023/01/20 04:49:26;;;;;;;29.15;20.02;;;;;;;4.51;70.24;99877.81;5039834;28;20053;-64
2023/01/20 04:51:53;;;;;;;29.25;19.25;;;;;;;4.49;70.47;99880.84;5046940;28;20060;-64
2023/01/20 04:54:21;;;;;;;28.73;17.95;;;;;;;4.35;70.25;99891.72;5048658;28;20053;-63
2023/01/20 04:56:48;;;;;;;27.25;18.80;;;;;;;4.38;70.47;99884.81;5034160;28;20045;-63
2023/01/20 04:59:17;;;;;;;33.63;20.88;;;;;;;4.37;70.03;99888.69;5048799;28;20048;-63
2023/01/20 05:01:44;;;;;;;26.55;18.90;;;;;;;4.43;69.85;99898.56;5049758;28;20393;-64
2023/01/20 05:04:11;;;;;;;31.52;20.55;;;;;;;4.46;70.67;99898.81;5053249;28;20049;-64
2023/01/20 05:06:41;;;;;;;25.67;18.55;;;;;;;4.45;70.27;99891.66;5053168;28;20055;-64
2023/01/20 05:09:09;;;;;;;26.13;18.42;;;;;;;4.33;69.80;99893.94;5050405;28;20065;-64
2023/01/20 05:11:36;;;;;;;26.25;17.55;;;;;;;4.40;70.17;99896.38;5053248;28;20481;-64
2023/01/20 05:14:04;;;;;;;24.58;16.50;;;;;;;4.43;70.53;99893.88;5051873;28;20060;-64
2023/01/20 05:16:33;;;;;;;30.85;18.65;;;;;;;4.31;70.04;99900.88;5049406;28;20045;-63
2023/01/20 05:19:01;;;;;;;32.03;20.00;;;;;;;4.36;69.95;99909.91;5052184;28;20489;-63
2023/01/20 05:21:28;;;;;;;30.27;19.27;;;;;;;4.32;70.46;99902.50;5051306;28;20477;-64
2023/01/20 05:23:56;;;;;;;28.77;19.35;;;;;;;4.35;70.59;99905.53;5051345;28;20049;-64
2023/01/20 05:26:23;;;;;;;28.23;18.35;;;;;;;4.36;69.79;99909.09;5038572;28;20056;-63
2023/01/20 05:28:51;;;;;;;27.40;18.05;;;;;;;4.38;70.52;99902.16;5037921;28;20072;-64
2023/01/20 05:31:18;;;;;;;25.75;17.35;;;;;;;4.43;70.70;99913.19;5037715;28;20064;-64
2023/01/20 05:33:47;;;;;;;28.27;18.55;;;;;;;4.46;68.98;99918.09;5044181;28;20057;-63
2023/01/20 05:36:14;;;;;;;25.98;17.52;;;;;;;4.34;69.27;99920.41;5048462;28;20046;-64
2023/01/20 05:38:41;;;;;;;26.88;17.67;;;;;;;4.26;70.32;99924.59;5039747;28;20053;-64
2023/01/20 05:41:09;;;;;;;23.70;17.13;;;;;;;4.34;70.50;99923.16;5040103;28;20060;-63
2023/01/20 05:43:37;;;;;;;25.33;17.00;;;;;;;4.29;69.35;99928.72;5043857;28;20067;-64
2023/01/20 05:46:05;;;;;;;24.58;17.10;;;;;;;4.29;68.88;99925.16;5044642;28;20053;-64
2023/01/20 05:48:32;;;;;;;22.88;15.10;;;;;;;4.34;69.00;99925.91;5037339;28;20512;-63
2023/01/20 05:51:01;;;;;;;22.08;15.32;;;;;;;4.30;70.08;99935.88;5048230;28;20059;-63
2023/01/20 05:53:28;;;;;;;22.33;14.35;;;;;;;4.28;68.79;99932.56;5047876;28;20045;-64
2023/01/20 05:56:00;;;;;;;22.92;16.20;;;;;;;4.41;69.15;99933.84;5041597;28;20064;-64
2023/01/20 05:58:28;;;;;;;20.50;14.27;;;;;;;4.38;69.02;99940.78;5046351;28;20064;-63
2023/01/20 06:00:55;;;;;;;22.52;14.80;;;;;;;4.47;69.36;99944.59;5043341;28;20060;-64
2023/01/20 06:03:23;;;;;;;22.08;14.65;;;;;;;4.53;69.02;99937.06;5042852;28;20049;-64
2023/01/20 06:05:50;;;;;;;23.00;13.85;;;;;;;4.53;68.93;99939.03;5043581;28;20053;-64
2023/01/20 06:08:18;;;;;;;22.13;14.77;;;;;;;4.59;68.77;99949.72;5045504;28;20049;-63
2023/01/20 06:10:46;;;;;;;22.42;15.23;;;;;;;4.57;69.03;99949.19;5050341;28;20056;-63
2023/01/20 06:13:13;;;;;;;24.13;14.23;;;;;;;4.64;68.90;99951.63;5036780;28;20408;-64
2023/01/20 06:15:40;;;;;;;21.10;13.98;;;;;;;4.64;68.19;99948.84;5048100;28;20056;-64
2023/01/20 06:18:11;;;;;;;24.58;15.00;;;;;;;4.60;68.66;99958.81;5041101;28;20124;-64
2023/01/20 06:20:39;;;;;;;23.58;14.68;;;;;;;4.58;68.27;99955.56;5043388;28;20065;-64
2023/01/20 06:23:06;;;;;;;22.50;14.43;;;;;;;4.66;68.85;99954.91;5045518;28;20045;-64
2023/01/20 06:25:34;;;;;;;22.10;14.10;;;;;;;4.56;67.77;99952.25;5043659;28;20049;-64
2023/01/20 06:28:02;;;;;;;22.70;14.65;;;;;;;4.48;67.75;99951.75;5049402;28;20048;-64
2023/01/20 06:30:29;;;;;;;21.55;13.90;;;;;;;4.59;68.87;99959.94;5048175;28;20053;-64
2023/01/20 06:32:56;;;;;;;19.42;12.43;;;;;;;4.59;68.26;99962.69;5049233;28;20481;-63
2023/01/20 06:35:24;;;;;;;19.23;12.25;;;;;;;4.70;68.90;99964.25;5046217;28;20056;-63
2023/01/20 06:37:51;;;;;;;20.10;13.60;;;;;;;4.64;67.90;99960.72;5049613;28;20397;-64
2023/01/20 06:40:19;;;;;;;19.17;12.77;;;;;;;4.63;67.63;99969.28;5048217;28;20434;-63
2023/01/20 06:42:47;;;;;;;18.38;12.90;;;;;;;4.47;67.16;99966.66;5049333;28;20377;-63
2023/01/20 06:45:15;;;;;;;18.58;12.02;;;;;;;4.52;67.58;99964.97;5052044;28;20513;-63
2023/01/20 06:47:43;;;;;;;19.63;12.35;;;;;;;4.42;67.88;99968.59;5051899;28;20056;-63
2023/01/20 06:50:10;;;;;;;18.02;11.95;;;;;;;4.14;68.04;99965.47;5052006;28;20053;-63
2023/01/20 06:52:38;;;;;;;17.20;11.23;;;;;;;4.05;68.04;99962.50;5048907;28;20054;-63
2023/01/20 06:55:06;;;;;;;20.35;13.13;;;;;;;3.96;68.62;99971.63;5052591;28;20052;-64
2023/01/20 06:57:33;;;;;;;18.88;12.82;;;;;;;3.92;68.80;99970.53;5052037;28;20493;-64
2023/01/20 07:00:02;;;;;;;18.15;12.85;;;;;;;3.92;68.66;99979.63;5051902;28;20522;-64
2023/01/20 07:02:29;;;;;;;21.05;12.50;;;;;;;3.95;67.99;99976.31;5046789;28;20053;-64
2023/01/20 07:04:56;;;;;;;20.13;12.98;;;;;;;3.91;67.74;99978.00;5051639;28;20065;-64
2023/01/20 07:07:23;;;;;;;16.90;10.93;;;;;;;3.75;68.05;99981.91;5051060;28;20413;-64
2023/01/20 07:09:54;;;;;;;19.00;12.57;;;;;;;3.80;67.99;99979.13;5045439;28;20516;-64
2023/01/20 07:12:21;;;;;;;19.38;12.65;;;;;;;3.72;68.47;99982.47;5052365;28;20045;-64
2023/01/20 07:14:48;;;;;;;20.42;12.45;;;;;;;3.82;68.50;99983.25;5049053;28;20068;-64
2023/01/20 07:17:17;;;;;;;19.67;12.20;;;;;;;3.50;67.97;99986.38;5053559;28;20052;-64
2023/01/20 07:19:44;;;;;;;17.75;12.05;;;;;;;3.78;68.06;99986.84;5046963;28;20053;-64
2023/01/20 07:22:12;;;;;;;17.38;11.52;;;;;;;3.88;67.63;99995.06;5052992;28;20060;-64
2023/01/20 07:24:39;;;;;;;18.95;11.73;;;;;;;3.50;68.19;99999.34;5050590;28;20053;-39
2023/01/20 07:27:19;;;;;;;18.10;11.20;;;;;;;3.57;68.10;100002.59;5046464;28;20056;-67
2023/01/20 07:29:46;;;;;;;19.60;11.93;;;;;;;3.63;68.46;100010.59;5044866;28;20416;-67
2023/01/20 07:32:14;;;;;;;18.67;11.93;;;;;;;3.55;69.18;100013.91;5046240;28;20057;-61
2023/01/20 07:34:42;;;;;;;19.23;12.15;;;;;;;3.62;67.64;100019.94;5048186;28;20409;-62
2023/01/20 07:37:09;;;;;;;19.77;12.10;;;;;;;3.55;67.58;100026.84;5045459;28;21868;-61
2023/01/20 07:39:37;;;;;;;21.15;13.07;;;;;;;3.64;68.09;100031.50;5049363;28;20064;-61
2023/01/20 07:42:04;;;;;;;19.33;11.50;;;;;;;3.64;67.70;100028.75;5047829;28;20056;-63
2023/01/20 07:44:32;;;;;;;18.38;11.30;;;;;;;3.60;68.67;100030.41;5050108;28;20053;-61
2023/01/20 07:47:00;;;;;;;19.42;13.02;;;;;;;3.66;67.99;100034.81;5047196;28;20053;-66
2023/01/20 07:49:28;;;;;;;19.95;12.73;;;;;;;3.62;68.23;100030.97;5047465;28;20061;-67
2023/01/20 07:51:56;;;;;;;20.70;12.85;;;;;;;3.41;67.05;100038.44;5042837;28;20049;-68
2023/01/20 07:54:23;;;;;;;22.35;13.32;;;;;;;3.57;67.64;100042.00;5043379;28;20501;-68
2023/01/20 07:56:51;;;;;;;21.50;13.40;;;;;;;3.76;67.43;100039.47;5046858;28;20065;-67
2023/01/20 07:59:18;;;;;;;19.05;12.13;;;;;;;3.95;67.40;100031.44;5047287;28;20056;-68
2023/01/20 08:01:45;;;;;;;19.35;12.93;;;;;;;4.07;67.01;100042.97;5046322;28;20057;-64
2023/01/20 08:04:13;;;;;;;22.10;13.20;;;;;;;4.07;66.35;100044.88;5047732;28;20399;-61
2023/01/20 08:06:40;;;;;;;21.90;12.98;;;;;;;4.15;66.13;100043.47;5047118;28;20056;-61
2023/01/20 08:09:11;;;;;;;22.05;13.85;;;;;;;4.13;65.69;100043.75;5046960;28;20071;-61
2023/01/20 08:11:38;;;;;;;20.80;12.93;;;;;;;4.32;65.46;100049.44;5047468;28;20049;-60
2023/01/20 08:14:06;;;;;;;22.38;14.02;;;;;;;4.36;64.54;100050.53;5047327;28;20053;-61
2023/01/20 08:16:33;;;;;;;23.00;14.13;;;;;;;4.38;65.16;100062.09;5045710;28;20045;-61
2023/01/20 08:19:00;;;;;;;21.95;14.13;;;;;;;4.94;63.79;100060.94;5044417;28;20051;-65
2023/01/20 08:21:29;;;;;;;18.13;13.52;;;;;;;5.90;61.52;100057.59;5045552;28;20055;-67
2023/01/20 08:23:58;;;;;;;17.57;13.00;;;;;;;6.61;58.54;100057.81;5048627;28;20064;-67
2023/01/20 08:26:28;;;;;;;17.85;13.15;;;;;;;6.88;58.02;100057.97;5047971;28;20056;-68
2023/01/20 08:28:56;;;;;;;21.25;12.93;;;;;;;7.40;56.94;100062.72;5045755;28;20048;-68
2023/01/20 08:31:24;;;;;;;19.80;13.00;;;;;;;7.38;56.38;100067.72;5046717;28;20064;-67
2023/01/20 08:33:53;;;;;;;20.55;12.60;;;;;;;7.24;56.46;100068.50;5041777;28;20412;-67
2023/01/20 08:36:23;;;;;;;20.20;13.48;;;;;;;6.91;56.41;100065.69;5045185;28;20053;-67
2023/01/20 08:38:50;;;;;;;19.33;13.77;;;;;;;6.41;57.19;100070.81;5044645;28;20057;-67
2023/01/20 08:41:19;;;;;;;21.58;13.90;;;;;;;6.39;57.00;100067.53;5043845;28;20049;-68
2023/01/20 08:43:48;;;;;;;20.33;13.65;;;;;;;7.32;56.42;100080.84;5047522;28;20049;-68
2023/01/20 08:46:17;;;;;;;17.70;12.77;;;;;;;7.71;54.77;100082.41;5043930;28;20450;-67
2023/01/20 08:48:45;;;;;;;16.50;12.37;;;;;;;8.83;52.47;100073.75;5051027;28;20067;-68
2023/01/20 08:51:14;;;;;;;19.13;12.98;;;;;;;9.38;49.22;100074.69;5045461;28;20491;-68
2023/01/20 08:53:42;;;;;;;15.40;11.82;;;;;;;11.60;46.07;100077.09;5051377;28;20053;-67
2023/01/20 08:56:11;;;;;;;19.45;13.45;;;;;;;12.13;43.72;100083.38;5051024;28;20049;-67
2023/01/20 08:58:38;;;;;;;17.60;11.90;;;;;;;12.96;41.54;100079.97;5049850;28;20049;-67
2023/01/20 09:01:10;;;;;;;15.68;11.35;;;;;;;13.71;39.03;100078.34;5044512;28;20052;-62
2023/01/20 09:03:38;;;;;;;14.70;11.15;;;;;;;14.82;37.90;100071.69;5049931;28;20049;-62
2023/01/20 09:06:06;;;;;;;16.98;11.30;;;;;;;15.57;36.66;100072.25;5050710;28;20045;-62
2023/01/20 09:08:34;;;;;;;14.38;11.73;;;;;;;16.95;34.93;100073.41;5042347;28;20053;-62
2023/01/20 09:11:03;;;;;;;15.40;10.90;;;;;;;17.81;33.25;100068.75;5051476;28;20049;-63
2023/01/20 09:13:30;;;;;;;12.65;10.40;;;;;;;18.29;32.04;100066.41;5042912;28;20045;-62
2023/01/20 09:15:57;;;;;;;12.52;10.00;;;;;;;19.30;29.68;100080.03;5047620;28;20362;-62
2023/01/20 09:18:26;;;;;;;12.65;10.50;;;;;;;20.16;28.58;100078.19;5050417;28;20041;-63
2023/01/20 09:20:53;;;;;;;10.90;9.68;;;;;;;20.33;28.24;100075.94;5044576;28;20504;-68
2023/01/20 09:23:21;;;;;;;11.65;9.55;;;;;;;20.43;28.01;100078.00;5044752;28;20062;-67
2023/01/20 09:25:48;;;;;;;12.15;10.23;;;;;;;20.85;26.64;100088.06;5046035;28;20072;-67
2023/01/20 09:28:15;;;;;;;9.52;7.97;;;;;;;20.82;27.30;100080.38;5041744;28;20053;-68
2023/01/20 09:30:43;;;;;;;11.18;9.40;;;;;;;21.87;26.51;100085.34;5049369;28;20053;-67
2023/01/20 09:33:11;;;;;;;10.18;8.00;;;;;;;21.24;25.67;100082.63;5049022;28;20056;-68
2023/01/20 09:35:40;;;;;;;10.10;7.93;;;;;;;21.82;25.11;100083.72;5047770;28;20053;-67
2023/01/20 09:44:03;;;;;;;8.97;7.10;;;;;;;22.06;23.85;100098.34;5046000;28;20064;-68
2023/01/20 09:47:18;;;;;;;7.88;6.93;;;;;;;20.95;24.51;100098.66;5037572;28;20053;-68
2023/01/20 09:55:24;;;;;;;7.03;6.32;;;;;;;23.87;21.76;100097.72;5041355;28;20068;-68
2023/01/20 09:57:58;;;;;;;7.40;6.30;;;;;;;24.13;21.17;100102.03;5040833;28;20056;-68
2023/01/20 10:00:30;;;;;;;7.47;6.40;;;;;;;23.67;21.52;100101.03;5041197;28;20068;-67
2023/01/20 10:03:04;;;;;;;7.63;6.38;;;;;;;21.30;23.60;100108.56;5049312;28;20052;-67
2023/01/20 10:05:37;;;;;;;7.88;6.40;;;;;;;19.71;25.49;100116.88;5042420;28;20052;-68
2023/01/20 10:08:14;;;;;;;7.57;6.32;;;;;;;20.08;25.61;100104.78;5047248;28;20045;-67
2023/01/20 10:10:49;;;;;;;9.52;7.45;;;;;;;21.35;24.79;100110.22;5047406;28;20067;-63
2023/01/20 10:13:21;;;;;;;8.13;6.40;;;;;;;18.66;27.36;100119.38;5046010;28;20049;-63
2023/01/20 10:15:52;;;;;;;8.02;6.35;;;;;;;17.61;28.05;100127.06;5046235;28;20092;-63
2023/01/20 10:18:24;;;;;;;10.00;6.57;;;;;;;15.58;30.73;100127.22;5045401;28;20064;-63
2023/01/20 10:20:56;;;;;;;8.93;6.35;;;;;;;14.92;32.33;100126.47;5044817;28;20056;-65
2023/01/20 10:23:30;;;;;;;9.00;6.40;;;;;;;15.21;31.46;100128.16;5042994;28;20386;-62
2023/01/20 10:26:04;;;;;;;7.13;5.97;;;;;;;14.26;33.29;100126.63;5046280;28;20048;-63
2023/01/20 10:28:37;;;;;;;8.55;6.95;;;;;;;13.85;33.24;100134.03;5041707;28;20044;-62
2023/01/20 10:31:05;;;;;;;8.40;6.65;;;;;;;12.92;35.26;100134.91;5049843;28;20056;-63
2023/01/20 10:33:36;;;;;;;7.50;6.10;;;;;;;16.07;31.11;100112.97;5045676;28;20048;-62
2023/01/20 10:36:04;;;;;;;8.27;6.18;;;;;;;18.69;26.94;100114.97;5048984;28;20049;-62
2023/01/20 10:38:43;;;;;;;7.72;5.60;;;;;;;18.50;26.90;100105.44;5042714;28;20053;-63
2023/01/20 10:41:17;;;;;;;7.50;6.43;;;;;;;16.99;30.15;100133.38;5048570;28;20056;-63
2023/01/20 10:43:45;;;;;;;6.43;5.68;;;;;;;21.90;24.37;100104.38;5046298;28;20048;-62
2023/01/20 10:46:38;;;;;;;7.60;5.32;;;;;;;19.31;25.50;100101.41;5044925;28;20052;-62
2023/01/20 10:49:28;;;;;;;5.55;4.38;;;;;;;20.37;24.81;100102.19;5043246;28;20457;-67
2023/01/20 10:52:11;;;;;;;5.88;4.47;;;;;;;17.28;27.83;100119.94;5045897;28;20411;-68
2023/01/20 10:54:46;;;;;;;5.53;4.68;;;;;;;15.23;30.55;100114.59;5042305;28;20053;-66
2023/01/20 10:57:15;;;;;;;5.65;4.38;;;;;;;13.58;32.72;100134.25;5047020;28;20060;-68
2023/01/20 10:59:45;;;;;;;8.57;5.30;;;;;;;12.85;34.90;100123.47;5034403;28;20052;-67
2023/01/20 11:02:17;;;;;;;7.70;6.00;;;;;;;11.66;37.44;100131.56;5043984;28;20052;-68
2023/01/20 11:04:48;;;;;;;7.68;5.72;;;;;;;11.82;37.55;100122.69;5046373;28;20061;-67
2023/01/20 11:07:18;;;;;;;6.72;5.28;;;;;;;11.33;38.14;100129.28;5046488;28;20413;-62
2023/01/20 11:09:48;;;;;;;7.90;5.43;;;;;;;10.81;38.82;100129.22;5047326;28;20049;-62
2023/01/20 11:12:17;;;;;;;6.97;5.10;;;;;;;10.55;39.61;100127.19;5047957;28;20498;-62
2023/01/20 11:14:45;;;;;;;7.70;4.88;;;;;;;11.48;37.61;100127.16;5047067;28;20049;-62
2023/01/20 11:17:16;;;;;;;6.45;5.03;;;;;;;12.43;36.55;100136.47;5048214;28;20053;-67
2023/01/20 11:19:52;;;;;;;7.18;3.65;;;;;;;15.38;31.18;100115.84;5042223;28;20049;-67
2023/01/20 11:22:28;;;;;;;6.60;4.70;;;;;;;19.93;25.92;100112.28;5041090;28;20061;-67
2023/01/20 11:24:58;;;;;;;4.82;4.10;;;;;;;22.15;22.74;100112.94;5041524;28;20053;-68
2023/01/20 11:27:28;;;;;;;5.55;4.00;;;;;;;23.05;22.45;100113.81;5045885;28;20057;-67
2023/01/20 11:29:59;;;;;;;5.50;4.43;;;;;;;25.36;20.39;100110.34;5042203;28;20405;-68
2023/01/20 11:32:32;;;;;;;4.95;4.35;;;;;;;26.20;19.64;100109.66;5047674;28;20071;-67
2023/01/20 11:35:02;;;;;;;7.10;6.50;;;;;;;27.19;17.98;100102.69;5042475;28;20532;-68
2023/01/20 11:37:36;;;;;;;5.15;4.65;;;;;;;27.37;17.75;100110.97;5049118;28;20049;-68
2023/01/20 11:40:18;;;;;;;8.13;7.53;;;;;;;27.01;17.29;100111.63;5043711;28;20049;-68
2023/01/20 11:42:47;;;;;;;6.93;6.28;;;;;;;27.99;16.92;100099.88;5047962;28;20061;-68
2023/01/20 11:45:31;;;;;;;4.35;3.38;;;;;;;25.82;19.22;100106.91;5050477;28;20072;-68
2023/01/20 11:48:02;;;;;;;4.60;3.30;;;;;;;20.55;23.58;100119.34;5044545;28;20057;-67